Time;durP1;ratioP1;P1;durP2;ratioP2;P2;SDS_P1;SDS_P2;PMS_P1;PMS_P2;Temp;Humidity;BMP_temperature;BMP_pressure;BME280_temperature;BME280_humidity;BME280_pressure;Samples;Min_cycle;Max_cycle;Signal;HPM_P1;HPM_P2
2022/01/11 00:01:42;;;;;;;10.40;9.13;;;4.10;99.90;;;;;;4974098;28;20255;-56
2022/01/11 00:04:09;;;;;;;10.30;9.00;;;4.20;99.90;;;;;;4973950;28;20216;-60
2022/01/11 00:06:40;;;;;;;12.37;9.93;;;4.30;99.90;;;;;;4974231;28;20225;-60
2022/01/11 00:09:20;;;;;;;11.90;9.73;;;4.20;99.90;;;;;;4967101;28;20236;-60
2022/01/11 00:11:47;;;;;;;11.17;9.83;;;4.20;99.90;;;;;;4974167;28;20173;-55
2022/01/11 00:14:13;;;;;;;12.57;10.43;;;4.20;99.90;;;;;;4973756;28;20196;-60
2022/01/11 00:16:38;;;;;;;11.00;9.40;;;4.20;99.90;;;;;;4956669;28;20178;-58
2022/01/11 00:19:06;;;;;;;12.07;10.47;;;4.20;99.90;;;;;;4974112;28;20176;-59
2022/01/11 00:21:33;;;;;;;12.63;10.77;;;4.30;99.90;;;;;;4974193;28;20170;-57
2022/01/11 00:26:44;;;;;;;13.00;10.90;;;4.40;99.90;;;;;;4971266;28;20177;-57
2022/01/11 00:29:09;;;;;;;13.00;10.50;;;4.30;99.90;;;;;;4973837;28;20193;-57
2022/01/11 00:31:35;;;;;;;13.33;11.53;;;4.40;99.90;;;;;;4974034;28;20202;-57
2022/01/11 00:34:02;;;;;;;13.37;10.40;;;4.40;99.90;;;;;;4973272;28;20213;-58
2022/01/11 00:36:40;;;;;;;13.67;10.97;;;4.20;99.90;;;;;;4973850;28;20165;-60
2022/01/11 00:39:06;;;;;;;12.63;11.30;;;4.20;99.90;;;;;;4973707;28;20240;-55
2022/01/11 00:41:32;;;;;;;11.27;10.13;;;4.20;99.90;;;;;;4973784;28;20188;-59
2022/01/11 00:43:57;;;;;;;11.33;9.80;;;4.30;99.90;;;;;;4973331;28;20202;-53
2022/01/11 00:46:23;;;;;;;12.10;10.70;;;4.30;99.90;;;;;;4973606;28;20170;-59
2022/01/11 00:48:48;;;;;;;11.83;10.60;;;4.40;99.90;;;;;;4973440;28;20235;-56
2022/01/11 00:51:14;;;;;;;13.40;11.23;;;4.40;99.90;;;;;;4973326;28;20647;-61
2022/01/11 00:53:41;;;;;;;12.17;10.87;;;4.50;99.90;;;;;;4972979;28;20197;-59
2022/01/11 00:56:06;;;;;;;14.77;12.20;;;4.40;99.90;;;;;;4973499;28;20181;-56
2022/01/11 00:58:32;;;;;;;11.60;10.40;;;4.20;99.90;;;;;;4968606;28;20531;-57
2022/01/11 01:00:58;;;;;;;11.83;10.47;;;4.10;99.90;;;;;;4972731;28;20174;-60
2022/01/11 01:03:24;;;;;;;11.73;9.53;;;4.10;99.90;;;;;;4973153;28;20619;-60
2022/01/11 01:05:50;;;;;;;12.70;9.87;;;4.20;99.90;;;;;;4955723;28;20185;-61
2022/01/11 01:08:16;;;;;;;10.40;9.30;;;4.30;99.90;;;;;;4971884;28;20174;-56
2022/01/11 01:10:46;;;;;;;11.17;9.97;;;4.30;99.90;;;;;;4973322;28;20180;-58
2022/01/11 01:13:18;;;;;;;13.83;11.83;;;4.30;99.90;;;;;;4973389;28;20186;-57
2022/01/11 01:15:48;;;;;;;12.27;10.70;;;4.30;99.90;;;;;;4951348;28;20178;-60
2022/01/11 01:18:21;;;;;;;11.93;9.33;;;4.20;99.90;;;;;;4962185;28;20209;-59
2022/01/11 01:20:47;;;;;;;13.10;10.83;;;4.20;99.90;;;;;;4970860;28;20176;-58
2022/01/11 01:23:13;;;;;;;13.27;10.27;;;4.20;99.90;;;;;;4967885;28;20296;-57
2022/01/11 01:25:41;;;;;;;11.13;9.63;;;4.20;99.90;;;;;;4955217;28;20178;-59
2022/01/11 01:28:07;;;;;;;11.33;10.13;;;4.20;99.90;;;;;;4972924;28;20170;-58
2022/01/11 01:30:33;;;;;;;10.43;9.33;;;4.30;99.90;;;;;;4972938;28;20665;-60
2022/01/11 01:32:58;;;;;;;12.53;10.73;;;4.30;99.90;;;;;;4953112;28;20206;-60
2022/01/11 01:35:29;;;;;;;12.93;10.97;;;4.30;99.90;;;;;;4953448;29;20178;-60
2022/01/11 01:37:54;;;;;;;13.33;10.73;;;4.30;99.90;;;;;;4954250;29;20183;-58
2022/01/11 01:40:20;;;;;;;12.80;11.33;;;4.20;99.90;;;;;;4952849;29;20185;-52
2022/01/11 01:42:47;;;;;;;12.90;10.67;;;4.20;99.90;;;;;;4936646;29;20194;-55
2022/01/11 01:45:14;;;;;;;13.87;11.70;;;4.30;99.90;;;;;;4953436;29;20170;-61
2022/01/11 01:47:40;;;;;;;13.70;11.70;;;4.30;99.90;;;;;;4953277;29;20176;-58
2022/01/11 01:50:07;;;;;;;12.13;10.83;;;4.20;99.90;;;;;;4957756;28;20170;-62
2022/01/11 01:52:33;;;;;;;13.77;11.93;;;4.20;99.90;;;;;;4972718;28;20174;-61
2022/01/11 01:54:59;;;;;;;11.90;10.60;;;4.20;99.90;;;;;;4972643;28;20228;-61
2022/01/11 01:57:25;;;;;;;11.03;9.80;;;4.30;99.90;;;;;;4972618;28;20178;-60
2022/01/11 01:59:50;;;;;;;12.20;10.43;;;4.30;99.90;;;;;;4972908;28;20257;-59
2022/01/11 02:02:16;;;;;;;11.73;9.97;;;4.30;99.90;;;;;;4972556;28;20173;-56
2022/01/11 02:04:42;;;;;;;12.77;10.67;;;4.30;99.90;;;;;;4975787;28;20197;-60
2022/01/11 02:07:08;;;;;;;12.43;10.13;;;4.40;99.90;;;;;;4959203;28;20173;-60
2022/01/11 02:09:35;;;;;;;10.40;9.30;;;4.40;99.90;;;;;;4976398;28;20166;-61
2022/01/11 02:12:01;;;;;;;12.07;10.13;;;4.40;99.90;;;;;;4976514;28;20174;-56
2022/01/11 02:14:27;;;;;;;11.57;10.03;;;4.30;99.90;;;;;;4975859;28;20189;-61
2022/01/11 02:16:53;;;;;;;10.97;9.47;;;4.20;99.90;;;;;;4976331;28;20170;-62
2022/01/11 02:19:19;;;;;;;11.83;9.90;;;4.30;99.90;;;;;;4976210;28;20178;-59
2022/01/11 02:21:45;;;;;;;12.10;10.03;;;4.30;99.90;;;;;;4976359;28;20180;-61
2022/01/11 02:24:10;;;;;;;12.77;10.67;;;4.40;99.90;;;;;;4968549;28;20574;-58
2022/01/11 02:26:36;;;;;;;10.13;8.93;;;4.40;99.90;;;;;;4976127;28;20174;-58
2022/01/11 02:29:02;;;;;;;9.60;8.60;;;4.30;99.90;;;;;;4977385;28;20173;-60
2022/01/11 02:31:28;;;;;;;11.00;9.07;;;4.40;99.90;;;;;;4976180;28;20249;-60
2022/01/11 02:33:58;;;;;;;11.80;10.47;;;4.30;99.90;;;;;;4975610;28;20365;-61
2022/01/11 02:36:27;;;;;;;10.93;9.73;;;4.20;99.90;;;;;;4975973;28;20178;-60
2022/01/11 02:38:54;;;;;;;10.67;9.10;;;4.30;99.90;;;;;;4962448;28;20178;-60
2022/01/11 02:41:21;;;;;;;11.07;9.30;;;4.30;99.90;;;;;;4974207;28;20559;-59
2022/01/11 02:43:48;;;;;;;10.37;9.23;;;4.30;99.90;;;;;;4967116;28;20213;-61
2022/01/11 02:46:16;;;;;;;10.97;9.13;;;4.40;99.90;;;;;;4972164;28;20218;-60
2022/01/11 02:48:42;;;;;;;11.37;9.23;;;4.40;99.90;;;;;;4972856;28;20575;-60
2022/01/11 02:51:08;;;;;;;11.00;8.83;;;4.40;99.90;;;;;;4975681;28;20170;-60
2022/01/11 02:53:41;;;;;;;10.67;9.07;;;4.40;99.90;;;;;;4975632;28;20253;-59
2022/01/11 02:56:07;;;;;;;10.90;9.80;;;4.40;99.90;;;;;;4973574;28;20181;-62
2022/01/11 02:58:32;;;;;;;10.60;8.90;;;4.50;99.90;;;;;;4975463;28;20182;-62
2022/01/11 03:00:58;;;;;;;11.10;9.93;;;4.30;99.90;;;;;;4975403;28;20173;-62
2022/01/11 03:03:24;;;;;;;11.43;9.87;;;4.30;99.90;;;;;;4975427;28;20233;-59
2022/01/11 03:05:53;;;;;;;11.57;9.77;;;4.40;99.90;;;;;;4975211;28;20281;-62
2022/01/11 03:08:19;;;;;;;11.30;10.10;;;4.40;99.90;;;;;;4975514;28;20568;-60
2022/01/11 03:10:47;;;;;;;10.67;9.37;;;4.40;99.90;;;;;;4975299;28;20678;-61
2022/01/11 03:13:14;;;;;;;12.20;10.23;;;4.40;99.90;;;;;;4961289;28;20277;-61
2022/01/11 03:15:40;;;;;;;11.17;9.90;;;4.40;99.90;;;;;;4955070;28;20167;-58
2022/01/11 03:18:06;;;;;;;11.90;10.43;;;4.40;99.90;;;;;;4938609;29;20179;-58
2022/01/11 03:20:33;;;;;;;13.33;9.43;;;4.50;99.90;;;;;;4955933;29;20186;-59
2022/01/11 03:22:59;;;;;;;10.30;9.20;;;4.50;99.90;;;;;;4955605;28;20190;-57
2022/01/11 03:25:25;;;;;;;11.67;9.57;;;4.50;99.90;;;;;;4955567;29;20167;-59
2022/01/11 03:27:51;;;;;;;11.33;9.80;;;4.50;99.90;;;;;;4955668;29;20194;-60
2022/01/11 03:30:17;;;;;;;11.40;10.00;;;4.50;99.90;;;;;;4938602;29;20182;-55
2022/01/11 03:32:43;;;;;;;11.17;9.97;;;4.60;99.90;;;;;;4955473;28;20206;-58
2022/01/11 03:35:10;;;;;;;11.17;9.47;;;4.50;99.90;;;;;;4955502;29;20177;-59
2022/01/11 03:37:37;;;;;;;12.70;9.80;;;4.50;99.90;;;;;;4955422;29;20171;-60
2022/01/11 03:40:06;;;;;;;10.33;9.00;;;4.50;99.90;;;;;;4955687;29;20291;-60
2022/01/11 03:42:31;;;;;;;10.40;9.00;;;4.60;99.90;;;;;;4955152;28;20637;-60
2022/01/11 03:44:57;;;;;;;10.40;9.03;;;4.50;99.90;;;;;;4955023;29;20209;-57
2022/01/11 03:47:23;;;;;;;9.77;8.60;;;4.30;99.90;;;;;;4961109;28;20307;-58
2022/01/11 03:49:49;;;;;;;10.80;9.67;;;4.20;99.90;;;;;;4974593;28;20181;-62
2022/01/11 03:52:14;;;;;;;12.17;10.47;;;4.20;99.90;;;;;;4974689;28;20174;-60
2022/01/11 03:54:50;;;;;;;11.70;9.87;;;4.20;99.90;;;;;;4974228;28;20209;-60
2022/01/11 03:57:16;;;;;;;10.63;9.47;;;4.20;99.90;;;;;;4974509;28;20196;-59
2022/01/11 03:59:42;;;;;;;10.93;9.67;;;4.20;99.90;;;;;;4974467;28;20240;-60
2022/01/11 04:02:07;;;;;;;12.33;9.07;;;4.10;99.90;;;;;;4964443;28;20245;-61
2022/01/11 04:04:33;;;;;;;11.40;9.70;;;4.10;99.90;;;;;;4926773;29;20215;-60
2022/01/11 04:07:00;;;;;;;10.90;9.80;;;4.10;99.90;;;;;;4968477;28;20694;-59
2022/01/11 04:09:26;;;;;;;11.40;9.77;;;4.10;99.90;;;;;;4956899;28;20646;-59
2022/01/11 04:11:52;;;;;;;11.60;10.23;;;5.40;99.90;;;;;;4971331;28;20781;-59
2022/01/11 04:14:17;;;;;;;11.00;9.33;;;4.00;99.90;;;;;;4973615;28;20281;-60
2022/01/11 04:16:43;;;;;;;9.97;8.90;;;3.90;99.90;;;;;;4974267;28;20646;-60
2022/01/11 04:19:09;;;;;;;9.77;8.73;;;3.90;99.90;;;;;;4971449;28;20177;-60
2022/01/11 04:21:34;;;;;;;12.43;9.90;;;3.80;99.90;;;;;;4970634;28;20180;-59
2022/01/11 04:24:00;;;;;;;10.80;9.33;;;3.70;99.90;;;;;;4973783;28;20208;-58
2022/01/11 04:26:26;;;;;;;11.07;9.50;;;3.70;99.90;;;;;;4973363;28;20166;-60
2022/01/11 04:28:51;;;;;;;10.70;9.43;;;3.70;99.90;;;;;;4974092;28;20605;-59
2022/01/11 04:31:17;;;;;;;11.03;9.53;;;3.60;99.90;;;;;;4973849;28;20181;-59
2022/01/11 04:33:44;;;;;;;9.90;8.40;;;3.60;99.90;;;;;;4973826;28;20218;-56
2022/01/11 04:36:11;;;;;;;12.00;9.07;;;3.50;99.90;;;;;;4971127;28;20265;-58
2022/01/11 04:38:37;;;;;;;11.00;9.23;;;3.40;99.90;;;;;;4970185;28;20257;-59
2022/01/11 04:41:03;;;;;;;12.37;10.00;;;3.40;99.90;;;;;;4972378;28;20181;-59
2022/01/11 04:43:30;;;;;;;11.97;10.63;;;3.40;99.90;;;;;;4973657;28;20212;-59
2022/01/11 04:45:56;;;;;;;11.13;9.87;;;3.30;99.90;;;;;;4973255;28;20173;-57
2022/01/11 04:48:22;;;;;;;11.87;10.30;;;3.30;99.90;;;;;;4973578;28;20175;-58
2022/01/11 04:50:48;;;;;;;11.23;9.73;;;3.30;99.90;;;;;;4973634;28;20181;-59
2022/01/11 04:53:14;;;;;;;11.13;9.57;;;3.30;99.90;;;;;;4973286;28;20233;-57
2022/01/11 04:55:40;;;;;;;10.73;9.10;;;3.30;99.90;;;;;;4973338;28;20287;-55
2022/01/11 04:58:06;;;;;;;10.67;9.33;;;3.30;99.90;;;;;;4973184;28;20181;-59
2022/01/11 05:00:32;;;;;;;8.90;7.93;;;3.20;99.90;;;;;;4973567;28;20538;-58
2022/01/11 05:02:59;;;;;;;9.70;8.70;;;3.30;99.90;;;;;;4973058;28;20273;-58
2022/01/11 05:05:26;;;;;;;9.80;8.80;;;3.20;99.90;;;;;;4973168;28;20584;-59
2022/01/11 05:07:52;;;;;;;9.50;8.40;;;3.20;99.90;;;;;;4973311;28;20679;-57
2022/01/11 05:10:18;;;;;;;10.73;9.20;;;3.20;99.90;;;;;;4971156;28;20248;-62
2022/01/11 05:12:43;;;;;;;11.13;9.77;;;3.20;99.90;;;;;;4970497;28;20233;-58
2022/01/11 05:15:11;;;;;;;11.13;9.93;;;3.10;99.90;;;;;;4972960;28;20182;-58
2022/01/11 05:17:38;;;;;;;9.93;8.40;;;3.10;99.90;;;;;;4973187;28;20170;-58
2022/01/11 05:20:05;;;;;;;9.07;7.83;;;3.00;99.90;;;;;;4972917;28;20188;-56
2022/01/11 05:22:30;;;;;;;8.73;7.83;;;3.00;99.90;;;;;;4973058;28;20221;-59
2022/01/11 05:24:56;;;;;;;9.60;8.27;;;3.00;99.90;;;;;;4972661;28;20201;-58
2022/01/11 05:27:22;;;;;;;9.80;8.53;;;3.00;99.90;;;;;;4954234;28;20182;-58
2022/01/11 05:29:47;;;;;;;9.43;8.07;;;2.90;99.90;;;;;;4952885;29;20266;-61
2022/01/11 05:32:13;;;;;;;8.40;7.40;;;2.90;99.90;;;;;;4936331;29;20237;-59
2022/01/11 05:34:38;;;;;;;8.63;7.47;;;2.90;99.90;;;;;;4952944;28;20218;-55
2022/01/11 05:37:04;;;;;;;8.60;7.63;;;2.90;99.90;;;;;;4972868;28;20178;-57
2022/01/11 05:39:29;;;;;;;8.27;7.30;;;2.90;99.90;;;;;;4978632;28;20260;-60
2022/01/11 05:41:55;;;;;;;8.80;7.37;;;2.80;99.90;;;;;;4979335;28;20668;-56
2022/01/11 05:44:21;;;;;;;8.23;7.33;;;2.80;99.90;;;;;;4960424;28;20208;-60
2022/01/11 05:46:47;;;;;;;7.63;6.83;;;2.80;99.90;;;;;;4978980;28;20177;-59
2022/01/11 05:49:12;;;;;;;9.03;6.90;;;2.80;99.90;;;;;;4979285;28;20535;-58
2022/01/11 05:51:38;;;;;;;9.10;7.50;;;2.80;99.90;;;;;;4978975;28;20174;-59
2022/01/11 05:54:04;;;;;;;17.87;10.20;;;2.70;99.90;;;;;;4979000;28;20197;-55
2022/01/11 05:56:29;;;;;;;10.80;9.07;;;2.50;99.90;;;;;;4979099;28;20770;-57
2022/01/11 05:58:55;;;;;;;9.30;8.17;;;2.50;99.90;;;;;;4979176;28;20253;-60
2022/01/11 06:01:21;;;;;;;9.03;7.77;;;2.40;99.90;;;;;;4970434;28;20186;-58
2022/01/11 06:03:46;;;;;;;9.07;7.27;;;2.30;99.90;;;;;;4979046;28;20306;-58
2022/01/11 06:06:12;;;;;;;8.80;7.40;;;2.30;99.90;;;;;;4977381;28;20726;-60
2022/01/11 06:08:38;;;;;;;9.07;7.83;;;2.20;99.90;;;;;;4979163;28;20180;-60
2022/01/11 06:11:04;;;;;;;19.13;8.00;;;2.20;99.90;;;;;;4979256;28;20599;-58
2022/01/11 06:13:29;;;;;;;26.00;9.43;;;2.00;99.90;;;;;;4978840;28;20436;-58
2022/01/11 06:15:55;;;;;;;10.50;8.47;;;2.00;99.90;;;;;;4978863;28;20173;-59
2022/01/11 06:18:20;;;;;;;10.77;8.80;;;2.00;99.90;;;;;;4978755;28;20649;-59
2022/01/11 06:20:46;;;;;;;10.13;8.43;;;1.90;99.90;;;;;;4978813;28;20181;-62
2022/01/11 06:23:11;;;;;;;10.50;8.37;;;1.80;99.90;;;;;;4978742;28;20261;-59
2022/01/11 06:25:37;;;;;;;9.63;7.83;;;1.80;99.90;;;;;;4970117;28;20664;-57
2022/01/11 06:28:03;;;;;;;10.13;8.50;;;1.80;99.90;;;;;;4967935;28;20261;-61
2022/01/11 06:30:29;;;;;;;10.10;8.90;;;1.70;99.90;;;;;;4974727;28;20201;-59
2022/01/11 06:32:56;;;;;;;10.97;9.10;;;1.60;99.90;;;;;;4973876;28;20499;-59
2022/01/11 06:35:22;;;;;;;9.53;7.87;;;1.60;99.90;;;;;;4958037;28;20268;-58
2022/01/11 06:37:48;;;;;;;9.73;8.27;;;1.60;99.90;;;;;;4962801;28;20422;-58
2022/01/11 06:40:16;;;;;;;10.47;8.63;;;1.70;99.90;;;;;;4953388;28;20197;-61
2022/01/11 06:42:42;;;;;;;10.03;8.67;;;1.70;99.90;;;;;;4959274;28;20198;-58
2022/01/11 06:45:10;;;;;;;11.63;10.00;;;1.70;99.90;;;;;;4958501;29;20488;-62
2022/01/11 06:47:36;;;;;;;15.50;12.13;;;1.80;99.90;;;;;;4959247;28;20163;-61
2022/01/11 06:50:01;;;;;;;17.00;12.30;;;1.80;99.90;;;;;;4939337;29;20446;-61
2022/01/11 06:52:27;;;;;;;16.23;12.13;;;1.80;99.90;;;;;;4956166;28;20548;-62
2022/01/11 06:54:52;;;;;;;15.37;11.70;;;1.70;99.90;;;;;;4959791;28;20253;-62
2022/01/11 06:57:18;;;;;;;15.00;12.00;;;1.70;99.90;;;;;;4955015;29;20666;-62
2022/01/11 06:59:44;;;;;;;13.37;10.63;;;1.50;99.90;;;;;;4954711;29;20185;-63
2022/01/11 07:02:10;;;;;;;13.60;10.97;;;1.50;99.90;;;;;;4955579;29;20190;-63
2022/01/11 07:04:37;;;;;;;11.67;9.40;;;1.60;99.90;;;;;;4954790;28;20261;-62
2022/01/11 07:07:04;;;;;;;13.57;10.57;;;1.60;99.90;;;;;;4956067;29;20414;-62
2022/01/11 07:09:30;;;;;;;12.60;9.70;;;1.70;99.90;;;;;;4956129;29;20927;-63
2022/01/11 07:11:55;;;;;;;11.87;9.83;;;1.80;99.90;;;;;;4958450;28;20446;-63
2022/01/11 07:14:21;;;;;;;11.73;9.60;;;1.70;99.90;;;;;;4970359;28;20273;-62
2022/01/11 07:16:48;;;;;;;8.73;7.73;;;1.80;99.90;;;;;;4954092;28;20186;-62
2022/01/11 07:19:16;;;;;;;8.60;6.90;;;1.80;99.90;;;;;;4966202;28;20636;-63
2022/01/11 07:21:44;;;;;;;10.23;7.93;;;1.80;99.90;;;;;;4958762;28;20473;-62
2022/01/11 07:24:11;;;;;;;11.20;9.40;;;1.80;99.90;;;;;;4959419;28;20468;-62
2022/01/11 07:26:36;;;;;;;12.00;9.63;;;1.80;99.90;;;;;;4965128;28;20418;-63
2022/01/11 07:29:03;;;;;;;12.83;10.83;;;1.80;99.90;;;;;;4953804;29;20441;-62
2022/01/11 07:31:29;;;;;;;12.53;10.47;;;1.80;99.90;;;;;;4937084;29;20548;-63
2022/01/11 07:33:55;;;;;;;10.87;9.63;;;1.90;99.90;;;;;;4935085;29;20478;-65
2022/01/11 07:36:20;;;;;;;9.00;7.83;;;2.00;99.90;;;;;;4955343;29;20935;-62
2022/01/11 07:38:46;;;;;;;8.57;7.07;;;2.00;99.90;;;;;;4955262;29;20852;-62
2022/01/11 07:41:12;;;;;;;7.67;6.23;;;2.10;99.90;;;;;;4938302;29;20182;-62
2022/01/11 07:43:37;;;;;;;7.97;6.43;;;2.10;99.90;;;;;;4952423;28;20245;-60
2022/01/11 07:46:03;;;;;;;8.00;6.40;;;2.10;99.90;;;;;;4945359;29;20178;-61
2022/01/11 07:48:28;;;;;;;7.07;5.90;;;2.20;99.90;;;;;;4953058;29;20193;-60
2022/01/11 07:50:54;;;;;;;8.33;6.20;;;2.30;99.90;;;;;;4964715;28;20182;-60
2022/01/11 07:53:20;;;;;;;5.87;4.90;;;2.50;99.90;;;;;;4974475;28;20238;-63
2022/01/11 07:55:45;;;;;;;5.10;4.40;;;3.40;99.90;;;;;;4974159;28;20818;-59
2022/01/11 07:58:11;;;;;;;6.40;5.53;;;5.10;99.90;;;;;;4974447;28;20190;-59
2022/01/11 08:00:36;;;;;;;8.93;7.27;;;6.50;99.90;;;;;;4974414;28;20185;-62
2022/01/11 08:03:02;;;;;;;6.33;5.73;;;7.70;99.90;;;;;;4974311;28;20277;-61
2022/01/11 08:05:27;;;;;;;5.73;5.10;;;8.70;99.90;;;;;;4974167;28;20174;-63
2022/01/11 08:07:53;;;;;;;5.80;5.20;;;9.60;99.90;;;;;;4974420;28;20181;-61
2022/01/11 08:10:18;;;;;;;4.73;4.30;;;9.90;99.90;;;;;;4974295;28;20178;-61
2022/01/11 08:12:45;;;;;;;4.80;4.03;;;10.60;99.90;;;;;;4974397;28;20224;-61
2022/01/11 08:15:12;;;;;;;4.47;4.03;;;11.90;99.90;;;;;;4973886;28;20185;-62
2022/01/11 08:17:39;;;;;;;4.10;3.70;;;13.50;99.90;;;;;;4974212;28;20181;-59
2022/01/11 08:20:05;;;;;;;4.80;4.27;;;15.40;96.90;;;;;;4974205;28;20174;-62
2022/01/11 08:22:31;;;;;;;5.00;4.00;;;17.10;94.00;;;;;;4973968;28;20186;-63
2022/01/11 08:24:56;;;;;;;4.07;3.77;;;18.60;91.00;;;;;;4968768;28;20233;-63
2022/01/11 08:27:22;;;;;;;4.37;3.73;;;20.10;87.70;;;;;;4973974;28;20240;-62
2022/01/11 08:29:49;;;;;;;3.50;3.20;;;21.40;82.30;;;;;;4975260;28;20180;-63
2022/01/11 08:32:15;;;;;;;4.55;4.15;;;22.60;77.00;;;;;;4956672;28;20655;-63
2022/01/11 08:34:41;;;;;;;4.50;4.10;;;23.50;71.60;;;;;;4973430;28;20209;-59
2022/01/11 08:37:08;;;;;;;4.38;3.97;;;24.20;68.40;;;;;;4973894;28;20669;-62
2022/01/11 08:39:34;;;;;;;4.28;3.90;;;24.40;65.00;;;;;;4960863;28;20234;-62
2022/01/11 08:42:00;;;;;;;4.30;3.90;;;24.30;63.40;;;;;;4960542;28;20178;-60
2022/01/11 08:44:27;;;;;;;4.25;3.92;;;24.20;61.90;;;;;;4960176;28;20210;-60
2022/01/11 08:46:54;;;;;;;4.82;4.43;;;24.10;61.10;;;;;;4973181;28;20174;-58
2022/01/11 08:49:20;;;;;;;4.22;3.83;;;23.90;60.30;;;;;;4967946;28;20190;-62
2022/01/11 08:51:46;;;;;;;4.40;4.05;;;23.80;59.70;;;;;;4973337;28;20174;-62
2022/01/11 08:54:12;;;;;;;3.88;3.58;;;23.70;59.80;;;;;;4971870;28;20261;-61
2022/01/11 08:56:39;;;;;;;3.80;3.50;;;24.10;59.20;;;;;;4971620;28;20185;-62
2022/01/11 08:59:05;;;;;;;4.25;3.85;;;24.50;58.60;;;;;;4973317;28;20178;-63
2022/01/11 09:01:36;;;;;;;4.05;3.75;;;24.60;57.50;;;;;;4973446;28;20543;-62
2022/01/11 09:04:02;;;;;;;4.43;4.03;;;24.70;57.20;;;;;;4973199;28;20286;-62
2022/01/11 09:06:28;;;;;;;4.22;3.83;;;25.30;57.00;;;;;;4958461;28;20186;-65
2022/01/11 09:08:54;;;;;;;4.15;3.85;;;26.30;55.50;;;;;;4965923;28;20241;-59
2022/01/11 09:11:19;;;;;;;4.70;3.75;;;27.40;53.10;;;;;;4968406;28;20266;-57
2022/01/11 09:13:45;;;;;;;3.72;3.42;;;28.30;51.30;;;;;;4952466;28;20211;-60
2022/01/11 09:16:11;;;;;;;3.50;3.20;;;29.20;50.60;;;;;;4972708;28;20174;-63
2022/01/11 09:18:38;;;;;;;3.78;3.47;;;30.00;48.70;;;;;;4973098;28;20622;-61
2022/01/11 09:21:04;;;;;;;3.50;3.20;;;30.80;47.10;;;;;;4973114;28;20170;-61
2022/01/11 09:23:31;;;;;;;3.67;3.38;;;31.50;45.60;;;;;;4966754;28;20670;-58
2022/01/11 09:25:58;;;;;;;4.47;4.07;;;32.20;44.50;;;;;;4972832;28;20544;-60
2022/01/11 09:28:24;;;;;;;4.20;3.80;;;33.00;42.80;;;;;;4972831;28;20696;-58
2022/01/11 09:30:51;;;;;;;5.63;5.13;;;33.50;41.30;;;;;;4973029;28;20184;-61
2022/01/11 09:33:17;;;;;;;14.65;13.35;;;34.10;40.20;;;;;;4955627;28;20241;-61
2022/01/11 09:35:43;;;;;;;7.72;7.03;;;34.70;38.60;;;;;;4972578;28;20524;-60
2022/01/11 09:38:08;;;;;;;10.98;10.07;;;35.30;37.70;;;;;;4972819;28;20233;-65
2022/01/11 09:40:34;;;;;;;4.35;4.05;;;35.70;36.70;;;;;;4967246;28;20174;-57
2022/01/11 09:43:00;;;;;;;3.97;3.65;;;36.00;35.70;;;;;;4972716;28;20210;-59
2022/01/11 09:45:25;;;;;;;4.65;3.45;;;36.40;35.10;;;;;;4972598;28;20611;-60
2022/01/11 09:47:51;;;;;;;3.60;3.30;;;36.80;34.40;;;;;;4972832;28;20309;-62
2022/01/11 09:50:18;;;;;;;4.90;4.50;;;37.20;33.70;;;;;;4972931;28;20256;-60
2022/01/11 09:52:44;;;;;;;7.22;6.63;;;37.50;32.80;;;;;;4972733;28;20289;-62
2022/01/11 09:55:12;;;;;;;4.90;4.50;;;37.80;31.70;;;;;;4972424;28;20204;-62
2022/01/11 09:57:40;;;;;;;4.05;3.70;;;37.90;31.50;;;;;;4972649;28;20181;-61
2022/01/11 10:00:08;;;;;;;5.43;5.03;;;38.20;31.40;;;;;;4972695;28;20193;-58
2022/01/11 10:02:34;;;;;;;4.10;3.80;;;38.50;30.70;;;;;;4966438;28;20175;-59
2022/01/11 10:05:05;;;;;;;4.28;3.97;;;38.80;30.10;;;;;;4941691;29;20204;-58
2022/01/11 10:07:32;;;;;;;6.22;5.72;;;39.00;30.00;;;;;;4944008;29;20175;-61
2022/01/11 10:09:58;;;;;;;5.38;4.93;;;39.40;29.70;;;;;;4950350;29;20182;-57
2022/01/11 10:12:26;;;;;;;4.30;4.00;;;39.60;29.10;;;;;;4953177;29;20174;-59
2022/01/11 10:14:57;;;;;;;4.50;4.10;;;39.80;28.90;;;;;;4962070;28;20201;-58
2022/01/11 10:17:23;;;;;;;4.28;3.95;;;39.90;28.50;;;;;;4972403;28;20630;-62
2022/01/11 10:19:58;;;;;;;4.40;4.10;;;40.00;27.70;;;;;;4972610;28;20170;-58
2022/01/11 10:22:24;;;;;;;4.25;3.95;;;39.90;27.90;;;;;;4972190;28;20176;-59
2022/01/11 10:24:52;;;;;;;4.70;4.30;;;40.10;27.80;;;;;;4972953;28;20232;-61
2022/01/11 10:27:25;;;;;;;4.45;3.92;;;40.30;27.70;;;;;;4976236;28;20631;-60
2022/01/11 10:29:54;;;;;;;4.13;3.83;;;40.40;27.50;;;;;;4962707;28;20194;-59
2022/01/11 10:32:21;;;;;;;4.13;3.83;;;40.50;27.20;;;;;;4962251;28;20192;-59
2022/01/11 10:34:54;;;;;;;4.18;3.88;;;40.50;26.70;;;;;;4968621;28;20201;-61
2022/01/11 10:37:36;;;;;;;4.13;3.83;;;40.20;26.90;;;;;;4973632;28;20181;-60
2022/01/11 10:40:04;;;;;;;3.83;3.55;;;39.90;26.10;;;;;;4967859;28;20526;-59
2022/01/11 10:42:33;;;;;;;4.20;3.90;;;39.80;26.70;;;;;;4975894;28;20181;-61
2022/01/11 10:45:00;;;;;;;4.70;3.78;;;39.80;26.70;;;;;;4975524;28;20179;-60
2022/01/11 10:47:29;;;;;;;3.63;3.42;;;39.80;26.40;;;;;;4967584;28;20177;-60
2022/01/11 10:50:03;;;;;;;4.10;3.80;;;39.40;26.40;;;;;;4967664;28;20217;-60
2022/01/11 10:52:31;;;;;;;4.07;3.78;;;38.30;26.40;;;;;;4944954;29;20271;-51
2022/01/11 10:54:58;;;;;;;4.35;3.95;;;37.10;27.00;;;;;;4944468;29;20692;-62
2022/01/11 10:57:28;;;;;;;4.10;3.80;;;36.30;27.40;;;;;;4945979;28;20182;-62
2022/01/11 11:00:11;;;;;;;4.28;3.88;;;35.60;27.40;;;;;;4945142;29;20652;-60
2022/01/11 11:02:37;;;;;;;3.90;3.60;;;35.10;27.40;;;;;;4945781;29;20170;-60
2022/01/11 11:05:15;;;;;;;4.30;3.90;;;35.10;28.00;;;;;;4951430;28;20186;-62
2022/01/11 11:07:41;;;;;;;3.90;3.60;;;35.60;27.60;;;;;;4951678;28;20178;-60
2022/01/11 11:10:08;;;;;;;3.80;3.50;;;36.50;27.00;;;;;;4949682;28;20861;-63
2022/01/11 11:12:34;;;;;;;3.95;3.65;;;36.90;26.90;;;;;;4948809;29;20186;-61
2022/01/11 11:14:59;;;;;;;4.03;3.72;;;37.00;26.60;;;;;;4949258;28;20549;-60
2022/01/11 11:17:37;;;;;;;3.55;3.25;;;37.30;26.30;;;;;;4944983;29;20162;-63
2022/01/11 11:20:08;;;;;;;4.10;3.80;;;37.20;26.60;;;;;;4945449;29;20166;-61
2022/01/11 11:22:34;;;;;;;4.13;3.83;;;36.90;26.70;;;;;;4933240;29;20170;-61
2022/01/11 11:25:01;;;;;;;3.80;3.50;;;36.40;27.00;;;;;;4945541;28;20246;-61
2022/01/11 11:27:30;;;;;;;4.10;3.70;;;36.30;27.10;;;;;;4944840;29;20194;-61
2022/01/11 11:29:56;;;;;;;4.15;3.85;;;36.00;27.10;;;;;;4945094;29;20171;-63
2022/01/11 11:32:22;;;;;;;3.80;3.50;;;35.50;27.20;;;;;;4943196;29;20172;-62
2022/01/11 11:34:49;;;;;;;4.10;3.80;;;34.70;27.40;;;;;;4944190;29;20746;-63
2022/01/11 11:37:31;;;;;;;4.88;4.47;;;33.80;26.60;;;;;;4943956;28;20178;-62
2022/01/11 11:40:06;;;;;;;5.30;4.80;;;33.10;28.10;;;;;;4948742;28;20174;-61
2022/01/11 11:42:32;;;;;;;6.78;6.18;;;33.30;28.70;;;;;;4949361;28;20175;-61
2022/01/11 11:44:59;;;;;;;4.22;3.92;;;34.00;28.20;;;;;;4945481;29;20183;-63
2022/01/11 11:47:31;;;;;;;7.45;6.72;;;34.60;27.10;;;;;;4947227;29;20261;-64
2022/01/11 11:50:00;;;;;;;5.90;5.40;;;34.10;27.20;;;;;;4944467;29;20828;-64
2022/01/11 11:52:31;;;;;;;4.75;4.35;;;32.60;27.80;;;;;;4944805;29;20179;-62
2022/01/11 11:55:20;;;;;;;3.78;3.47;;;31.40;28.60;;;;;;4944241;29;20255;-58
2022/01/11 11:57:48;;;;;;;4.30;3.90;;;30.80;28.50;;;;;;4928326;29;20669;-63
2022/01/11 12:00:26;;;;;;;4.25;3.95;;;30.30;28.70;;;;;;4935699;29;20230;-64
2022/01/11 12:02:53;;;;;;;4.15;3.85;;;29.90;29.50;;;;;;4935306;29;20187;-62
2022/01/11 12:05:45;;;;;;;4.57;4.18;;;29.40;29.60;;;;;;4935795;29;20197;-61
2022/01/11 12:08:40;;;;;;;3.80;3.50;;;28.50;30.70;;;;;;4935625;29;20175;-62
2022/01/11 12:11:10;;;;;;;4.00;3.70;;;28.70;30.60;;;;;;4936094;29;20218;-62
2022/01/11 12:13:55;;;;;;;4.32;3.92;;;28.90;30.20;;;;;;4936126;29;20235;-61
2022/01/11 12:16:26;;;;;;;4.60;4.20;;;28.00;30.00;;;;;;4955022;29;20175;-63
2022/01/11 12:18:53;;;;;;;4.90;4.45;;;26.90;31.20;;;;;;4954878;28;20258;-61
2022/01/11 12:21:20;;;;;;;6.13;4.03;;;25.50;32.10;;;;;;4937667;29;20649;-60
2022/01/11 12:23:47;;;;;;;4.53;4.13;;;23.50;34.40;;;;;;4954553;28;20251;-62
2022/01/11 12:26:16;;;;;;;4.45;4.05;;;22.70;34.90;;;;;;4954556;29;20174;-64
2022/01/11 12:29:00;;;;;;;10.57;9.68;;;22.80;35.50;;;;;;4954642;29;20171;-63
2022/01/11 12:31:28;;;;;;;6.38;5.78;;;22.70;35.50;;;;;;4955304;29;20240;-61
2022/01/11 12:33:55;;;;;;;5.00;4.57;;;23.00;36.30;;;;;;4948432;28;20365;-60
2022/01/11 12:36:21;;;;;;;5.30;4.80;;;23.30;34.80;;;;;;4934550;29;20168;-60
2022/01/11 12:39:05;;;;;;;4.88;4.47;;;22.90;34.40;;;;;;4935160;29;20614;-60
2022/01/11 12:41:33;;;;;;;7.07;6.13;;;22.30;36.30;;;;;;4935520;29;20171;-62
2022/01/11 12:47:07;;;;;;;5.60;5.10;;;23.40;35.80;;;;;;4919185;29;20176;-63
2022/01/11 12:49:35;;;;;;;6.55;5.88;;;24.40;35.10;;;;;;4934993;29;20182;-62
2022/01/11 12:52:09;;;;;;;4.95;4.45;;;24.30;34.70;;;;;;4935096;29;20171;-62